Mineral, WA

9:29 AM PDT on August 22, 2014 (GMT -0700)
Gray Army Air Field | Change Station
CLOSE
Current Station
Airport
Location: Fort Lewis,
Elevation: 302 ft
Nearby Weather Stations

Elev 302 ft 47.08 °N, 122.58 °W | Updated 6 minutes ago

Overcast
Overcast
57 °F
Feels Like 57 °F
N
2
Wind Variable Wind from Variable

Today
High -- | Low -- °F
--% Chance of Precip.
Yesterday
High -- | Low -- °F
Precip. -- in
6:15 AM 8:06 PM
Waning Crescent, 7% visible
Pressure 30.06 in
Visibility 10.0 miles
Clouds Overcast 600 ft
Dew Point 55 °F
Humidity 94%
Rainfall 0.00 in
Snow Depth Not available.
UV 1 out of 12
Pollen 3.00 out of 12
Air Quality Not available.
Flu Activity Not available.
SPECI KGRF 221623Z AUTO VRB02KT 10SM OVC006 14/13 A3006 RMK AO2

More Conditions Fewer Conditions

Pressure 30.06 in
Visibility 10.0 miles
Clouds Overcast 600 ft
Dew Point 55 °F
Humidity 94%
Rainfall 0.00 in
Snow Depth Not available.
UV 1 out of 12
Pollen 3.00 out of 12
Air Quality Not available.
Flu Activity Not available.
SPECI KGRF 221623Z AUTO VRB02KT 10SM OVC006 14/13 A3006 RMK AO2

More Conditions Fewer Conditions

10-Day Weather Forecast

Almanac

Astronomy

Aug. 22, 2014 Rise Set
Actual Time 6:15 AM PDT 8:06 PM PDT
Civil Twilight 5:43 AM PDT 8:38 PM PDT
Nautical Twilight 5:03 AM PDT 9:18 PM PDT
Astronomical Twilight 4:20 AM PDT 10:01 PM PDT
Moon 3:38 AM PDT 6:21 PM PDT
Length of Visible Light 14h 55m
Length of Day
13h 50m
Tomorrow will be 3m 5s shorter.
Waning Crescent, 7% of the Moon is Illuminated
Today
Waning Crescent
Aug 25
New
Sep 2
First Quarter
Sep 8
Full
Sep 15
Last Quarter

Today's Extremes

State Highs State Lows

Community

WunderPhotos

Upload Photos

1,746,194 photos uploaded!

Nearby

Snow Depth

Station Depth Elevation
Lone Pine 0 in 3800 ft
Morse Lake 0 in 5400 ft
Sheep Canyon 0 in 4030 ft
Swift Creek 1 in 3770 ft
White Pass E.S. 0 in 4500 ft

Earthquake Activity

City Distance Mag. Time & Date
No recent earthquake activity has been reported nearby.
Minimum magnitude displayed is 2.5.

Coastal Water Temperatures

Place Temperature
No Stations Reporting

Nearby Weather Stations